createdAt,value
2022-12-24T00:01:37.068Z,10.62
2022-12-24T00:04:06.039Z,10.59
2022-12-24T00:06:34.572Z,10.61
2022-12-24T00:09:03.156Z,10.57
2022-12-24T00:11:33.137Z,10.56
2022-12-24T00:14:01.832Z,10.48
2022-12-24T00:16:30.189Z,10.45
2022-12-24T00:18:58.624Z,10.46
2022-12-24T00:21:27.100Z,10.56
2022-12-24T00:23:55.457Z,10.57
2022-12-24T00:26:23.928Z,10.50
2022-12-24T00:28:53.778Z,10.53
2022-12-24T00:31:22.452Z,10.57
2022-12-24T00:33:50.930Z,10.53
2022-12-24T00:36:25.775Z,10.59
2022-12-24T00:38:54.203Z,10.70
2022-12-24T00:41:26.173Z,10.71
2022-12-24T00:43:59.224Z,10.69
2022-12-24T00:46:30.081Z,10.69
2022-12-24T00:48:58.680Z,10.67
2022-12-24T00:51:27.760Z,10.63
2022-12-24T00:53:56.287Z,10.66
2022-12-24T00:56:24.966Z,10.56
2022-12-24T00:58:55.442Z,10.59
2022-12-24T01:01:24.411Z,10.62
2022-12-24T01:04:12.947Z,10.52
2022-12-24T01:06:40.440Z,10.50
2022-12-24T01:09:08.923Z,10.51
2022-12-24T01:11:37.374Z,10.53
2022-12-24T01:14:07.213Z,10.56
2022-12-24T01:16:35.658Z,10.59
2022-12-24T01:19:04.320Z,10.63
2022-12-24T01:21:32.682Z,10.61
2022-12-24T01:24:01.028Z,10.55
2022-12-24T01:26:29.399Z,10.50
2022-12-24T01:28:57.816Z,10.53
2022-12-24T01:31:27.565Z,10.66
2022-12-24T01:33:55.920Z,10.64
2022-12-24T01:36:24.328Z,10.66
2022-12-24T01:38:52.699Z,10.66
2022-12-24T01:41:41.467Z,10.65
2022-12-24T01:44:33.511Z,10.61
2022-12-24T01:47:12.873Z,10.60
2022-12-24T01:49:46.669Z,10.57
2022-12-24T01:52:19.150Z,10.53
2022-12-24T01:54:52.358Z,10.50
2022-12-24T01:57:27.590Z,10.51
2022-12-24T02:00:01.333Z,10.47
2022-12-24T02:02:33.379Z,10.49
2022-12-24T02:05:09.150Z,10.51
2022-12-24T02:07:38.142Z,10.49
2022-12-24T02:10:10.809Z,10.53
2022-12-24T02:12:40.531Z,10.48
2022-12-24T02:15:13.540Z,10.50
2022-12-24T02:17:53.273Z,10.44
2022-12-24T02:20:53.446Z,10.40
2022-12-24T02:23:46.298Z,10.41
2022-12-24T02:26:36.067Z,10.36
2022-12-24T02:29:28.517Z,10.31
2022-12-24T02:32:03.872Z,10.28
2022-12-24T02:34:38.362Z,10.30
2022-12-24T02:37:13.737Z,10.28
2022-12-24T02:39:46.648Z,10.28
2022-12-24T02:42:21.846Z,10.29
2022-12-24T02:44:55.727Z,10.31
2022-12-24T02:47:31.003Z,10.31
2022-12-24T02:50:04.086Z,10.36
2022-12-24T02:52:35.968Z,10.36
2022-12-24T02:55:10.832Z,10.35
2022-12-24T02:58:00.221Z,10.38
2022-12-24T03:00:31.881Z,10.30
2022-12-24T03:03:31.742Z,10.38
2022-12-24T03:06:09.619Z,10.32
2022-12-24T03:08:46.325Z,10.34
2022-12-24T03:11:15.965Z,10.40
2022-12-24T03:13:45.775Z,10.39
2022-12-24T03:16:19.069Z,10.40
2022-12-24T03:18:51.002Z,10.37
2022-12-24T03:21:26.703Z,10.36
2022-12-24T03:23:55.164Z,10.33
2022-12-24T03:26:24.783Z,10.38
2022-12-24T03:28:53.369Z,10.40
2022-12-24T03:31:22.292Z,10.37
2022-12-24T03:33:53.048Z,10.44
2022-12-24T03:36:21.418Z,10.40
2022-12-24T03:38:49.801Z,10.40
2022-12-24T03:41:18.296Z,10.39
2022-12-24T03:43:46.691Z,10.44
2022-12-24T03:46:15.078Z,10.45
2022-12-24T03:48:43.641Z,10.41
2022-12-24T03:51:19.874Z,10.43
2022-12-24T03:53:49.099Z,10.47
2022-12-24T03:56:20.512Z,10.48
2022-12-24T03:58:49.607Z,10.48
2022-12-24T04:01:19.264Z,10.52
2022-12-24T04:03:47.786Z,10.44
2022-12-24T04:06:19.040Z,10.50
2022-12-24T04:08:47.391Z,10.49
2022-12-24T04:11:19.414Z,10.51
2022-12-24T04:13:47.739Z,10.52
2022-12-24T04:16:18.279Z,10.52
2022-12-24T04:18:47.011Z,10.54
2022-12-24T04:21:15.470Z,10.46
2022-12-24T04:23:45.338Z,10.49
2022-12-24T04:26:15.304Z,10.52
2022-12-24T04:28:44.413Z,10.54
2022-12-24T04:31:16.460Z,10.53
2022-12-24T04:33:45.683Z,10.52
2022-12-24T04:36:17.948Z,10.54
2022-12-24T04:38:49.322Z,10.54
2022-12-24T04:41:23.724Z,10.47
2022-12-24T04:43:53.331Z,10.47
2022-12-24T04:46:24.244Z,10.51
2022-12-24T04:48:54.981Z,10.46
2022-12-24T04:51:24.112Z,10.49
2022-12-24T04:53:54.052Z,10.46
2022-12-24T04:56:24.942Z,10.43
2022-12-24T04:58:54.165Z,10.47
2022-12-24T05:01:25.256Z,10.41
2022-12-24T05:03:55.316Z,10.49
2022-12-24T05:06:26.213Z,10.49
2022-12-24T05:08:58.408Z,10.47
2022-12-24T05:11:27.442Z,10.48
2022-12-24T05:13:56.022Z,10.43
2022-12-24T05:16:26.088Z,10.38
2022-12-24T05:18:55.057Z,10.44
2022-12-24T05:21:25.856Z,10.41
2022-12-24T05:24:13.393Z,10.38
2022-12-24T05:26:44.810Z,10.38
2022-12-24T05:29:14.229Z,10.24
2022-12-24T05:31:45.056Z,10.25
2022-12-24T05:34:14.646Z,10.24
2022-12-24T05:36:43.924Z,10.25
2022-12-24T05:39:16.911Z,10.14
2022-12-24T05:41:46.134Z,10.20
2022-12-24T05:44:14.901Z,10.17
2022-12-24T05:46:43.767Z,10.24
2022-12-24T05:49:12.171Z,10.09
2022-12-24T05:51:41.257Z,10.12
2022-12-24T05:54:09.633Z,10.16
2022-12-24T05:56:39.358Z,10.21
2022-12-24T05:59:07.813Z,10.16
2022-12-24T06:01:36.367Z,10.15
2022-12-24T06:04:04.978Z,10.19
2022-12-24T06:06:33.371Z,10.11
2022-12-24T06:09:01.694Z,10.13
2022-12-24T06:11:30.527Z,10.22
2022-12-24T06:14:00.255Z,10.14
2022-12-24T06:16:28.744Z,10.23
2022-12-24T06:18:57.277Z,10.22
2022-12-24T06:21:25.699Z,10.24
2022-12-24T06:23:54.089Z,10.24
2022-12-24T06:26:24.224Z,10.29
2022-12-24T06:28:53.205Z,10.20
2022-12-24T06:31:24.816Z,10.31
2022-12-24T06:33:53.941Z,10.26
2022-12-24T06:36:26.168Z,10.31
2022-12-24T06:38:56.032Z,10.32
2022-12-24T06:41:25.347Z,10.38
2022-12-24T06:43:54.580Z,10.38
2022-12-24T06:46:24.470Z,10.36
2022-12-24T06:48:53.010Z,10.38
2022-12-24T06:51:21.610Z,10.39
2022-12-24T06:53:51.594Z,10.37
2022-12-24T06:56:21.721Z,10.38
2022-12-24T06:58:50.363Z,10.45
2022-12-24T07:01:20.806Z,10.39
2022-12-24T07:03:51.295Z,10.38
2022-12-24T07:06:23.648Z,10.34
2022-12-24T07:08:51.960Z,10.24
2022-12-24T07:11:20.441Z,10.29
2022-12-24T07:13:49.267Z,10.27
2022-12-24T07:16:18.357Z,10.24
2022-12-24T07:18:47.137Z,10.31
2022-12-24T07:21:17.049Z,10.35
2022-12-24T07:23:45.371Z,10.34
2022-12-24T07:26:13.747Z,10.30
2022-12-24T07:28:42.063Z,10.33
2022-12-24T07:31:10.493Z,10.31
2022-12-24T07:33:38.840Z,10.38
2022-12-24T07:36:10.124Z,10.36
2022-12-24T07:38:39.929Z,10.40
2022-12-24T07:41:08.299Z,10.43
2022-12-24T07:43:36.664Z,10.43
2022-12-24T07:46:05.567Z,10.46
2022-12-24T07:48:34.443Z,10.39
2022-12-24T07:51:02.943Z,10.42
2022-12-24T07:53:33.016Z,10.46
2022-12-24T07:56:07.529Z,10.52
2022-12-24T07:58:38.930Z,10.59
2022-12-24T08:01:07.571Z,10.63
2022-12-24T08:03:36.141Z,10.64
2022-12-24T08:06:04.919Z,10.64
2022-12-24T08:08:33.234Z,10.73
2022-12-24T08:11:05.100Z,10.66
2022-12-24T08:13:34.447Z,10.66
2022-12-24T08:16:02.906Z,10.61
2022-12-24T08:18:31.766Z,10.73
2022-12-24T08:21:00.379Z,10.78
2022-12-24T08:23:28.704Z,10.79
2022-12-24T08:25:57.168Z,10.75
2022-12-24T08:28:26.988Z,10.73
2022-12-24T08:30:55.795Z,10.78
2022-12-24T08:33:24.093Z,10.71
2022-12-24T08:35:54.931Z,10.78
2022-12-24T08:38:23.647Z,10.73
2022-12-24T08:40:55.109Z,10.83
2022-12-24T08:43:25.509Z,10.83
2022-12-24T08:45:55.425Z,10.87
2022-12-24T08:48:23.902Z,10.82
2022-12-24T08:50:52.268Z,10.83
2022-12-24T08:53:20.651Z,10.78
2022-12-24T08:55:55.633Z,10.66
2022-12-24T08:58:24.700Z,10.71
2022-12-24T09:00:54.431Z,10.78
2022-12-24T09:03:27.441Z,10.74
2022-12-24T09:05:56.440Z,10.64
2022-12-24T09:08:24.847Z,10.68
2022-12-24T09:10:53.273Z,10.61
2022-12-24T09:13:21.651Z,10.67
2022-12-24T09:15:56.375Z,10.67
2022-12-24T09:18:26.195Z,10.59
2022-12-24T09:21:01.034Z,10.56
2022-12-24T09:23:30.229Z,10.63
2022-12-24T09:25:58.914Z,10.60
2022-12-24T09:28:27.267Z,10.57
2022-12-24T09:31:02.371Z,10.64
2022-12-24T09:33:33.759Z,10.64
2022-12-24T09:36:02.726Z,10.68
2022-12-24T09:38:31.298Z,10.75
2022-12-24T09:41:05.400Z,10.74
2022-12-24T09:43:38.808Z,10.71
2022-12-24T09:46:17.835Z,10.66
2022-12-24T09:48:50.774Z,10.62
2022-12-24T09:51:28.501Z,10.69
2022-12-24T09:54:01.820Z,10.81
2022-12-24T09:56:36.292Z,10.77
2022-12-24T09:59:07.504Z,10.76
2022-12-24T10:01:37.382Z,10.78
2022-12-24T10:04:11.281Z,10.84
2022-12-24T10:06:48.839Z,10.99
2022-12-24T10:09:26.922Z,11.07
2022-12-24T10:12:05.166Z,11.07
2022-12-24T10:14:50.685Z,10.90
2022-12-24T10:17:42.641Z,10.98
2022-12-24T10:20:34.209Z,11.00
2022-12-24T10:23:13.051Z,10.98
2022-12-24T10:25:51.067Z,11.05
2022-12-24T10:28:35.614Z,11.07
2022-12-24T10:31:08.389Z,11.07
2022-12-24T10:33:43.282Z,11.14
2022-12-24T10:36:19.068Z,11.13
2022-12-24T10:38:47.959Z,11.35
2022-12-24T10:41:17.526Z,11.43
2022-12-24T10:43:47.898Z,11.50
2022-12-24T10:46:23.138Z,11.43
2022-12-24T10:48:59.893Z,11.41
2022-12-24T10:51:41.986Z,11.36
2022-12-24T10:54:14.681Z,11.40
2022-12-24T10:56:46.559Z,11.44
2022-12-24T10:59:28.103Z,11.27
2022-12-24T11:01:59.160Z,11.30
2022-12-24T11:04:31.759Z,11.37
2022-12-24T11:07:02.584Z,11.66
2022-12-24T11:09:33.566Z,11.45
2022-12-24T11:12:09.353Z,11.45
2022-12-24T11:14:40.243Z,11.63
2022-12-24T11:17:11.277Z,11.54
2022-12-24T11:19:41.122Z,11.75
2022-12-24T11:22:19.694Z,11.57
2022-12-24T11:24:59.770Z,11.57
2022-12-24T11:27:40.390Z,11.42
2022-12-24T11:30:29.481Z,11.49
2022-12-24T11:33:21.738Z,11.55
2022-12-24T11:36:03.489Z,11.62
2022-12-24T11:38:35.256Z,11.68
2022-12-24T11:41:08.391Z,11.66
2022-12-24T11:43:47.667Z,11.77
2022-12-24T11:46:24.163Z,11.91
2022-12-24T11:49:15.293Z,11.95
2022-12-24T11:52:19.509Z,11.98
2022-12-24T11:55:07.687Z,12.04
2022-12-24T11:57:49.804Z,11.96
2022-12-24T12:00:19.195Z,12.03
2022-12-24T12:02:51.273Z,12.02
2022-12-24T12:05:23.463Z,12.02
2022-12-24T12:07:58.096Z,11.95
2022-12-24T12:10:31.354Z,11.89
2022-12-24T12:13:09.777Z,11.84
2022-12-24T12:15:45.941Z,11.82
2022-12-24T12:18:18.250Z,11.84
2022-12-24T12:20:50.905Z,11.96
2022-12-24T12:23:27.641Z,12.01
2022-12-24T12:26:00.371Z,12.05
2022-12-24T12:28:37.676Z,12.25
2022-12-24T12:31:16.909Z,12.52
2022-12-24T12:33:50.051Z,12.67
2022-12-24T12:36:23.078Z,12.63
2022-12-24T12:38:53.263Z,12.71
2022-12-24T12:41:46.647Z,12.49
2022-12-24T12:44:48.191Z,12.31
2022-12-24T12:47:45.074Z,12.23
2022-12-24T12:50:20.001Z,12.14
2022-12-24T12:53:14.993Z,12.43
2022-12-24T12:55:54.416Z,12.36
2022-12-24T12:58:28.921Z,12.34
2022-12-24T13:01:04.569Z,12.38
2022-12-24T13:04:25.303Z,12.62
2022-12-24T13:07:18.770Z,12.76
2022-12-24T13:10:14.728Z,12.56
2022-12-24T13:13:20.068Z,12.44
2022-12-24T13:16:04.845Z,12.33
2022-12-24T13:19:05.707Z,12.33
2022-12-24T13:21:35.313Z,12.17
2022-12-24T13:24:16.631Z,11.88
2022-12-24T13:27:01.347Z,11.89
2022-12-24T13:29:53.353Z,11.86
2022-12-24T13:32:51.258Z,11.83
2022-12-24T13:36:00.621Z,11.96
2022-12-24T13:38:42.689Z,12.12
2022-12-24T13:41:46.874Z,12.12
2022-12-24T13:44:33.725Z,12.07
2022-12-24T13:47:30.192Z,12.01
2022-12-24T13:50:23.191Z,11.94
2022-12-24T13:52:54.547Z,12.01
2022-12-24T13:55:23.535Z,12.03
2022-12-24T13:57:58.695Z,12.02
2022-12-24T14:00:34.859Z,11.90
2022-12-24T14:03:17.410Z,11.85
2022-12-24T14:05:50.080Z,11.79
2022-12-24T14:08:31.909Z,11.79
2022-12-24T14:11:08.912Z,11.67
2022-12-24T14:14:11.121Z,11.79
2022-12-24T14:16:50.256Z,11.72
2022-12-24T14:19:23.058Z,11.70
2022-12-24T14:22:03.984Z,11.68
2022-12-24T14:24:36.642Z,11.63
2022-12-24T14:27:16.050Z,11.60
2022-12-24T14:29:52.405Z,11.58
2022-12-24T14:32:21.210Z,11.56
2022-12-24T14:35:08.355Z,11.49
2022-12-24T14:37:37.236Z,11.46
2022-12-24T14:40:08.531Z,11.42
2022-12-24T14:42:47.833Z,11.49
2022-12-24T14:45:29.533Z,11.40
2022-12-24T14:48:08.006Z,11.41
2022-12-24T14:50:58.683Z,11.43
2022-12-24T14:53:51.033Z,11.37
2022-12-24T14:56:22.527Z,11.41
2022-12-24T14:58:51.538Z,11.43
2022-12-24T15:01:24.319Z,11.40
2022-12-24T15:04:04.940Z,11.37
2022-12-24T15:06:37.526Z,11.37
2022-12-24T15:09:07.584Z,11.36
2022-12-24T15:11:37.182Z,11.35
2022-12-24T15:14:06.898Z,11.29
2022-12-24T15:16:37.613Z,11.23
2022-12-24T15:19:09.399Z,11.10
2022-12-24T15:21:41.706Z,11.10
2022-12-24T15:24:26.673Z,11.08
2022-12-24T15:26:55.727Z,10.99
2022-12-24T15:29:27.470Z,10.95
2022-12-24T15:31:58.020Z,10.90
2022-12-24T15:34:37.143Z,10.81
2022-12-24T15:37:15.747Z,10.79
2022-12-24T15:39:45.045Z,10.81
2022-12-24T15:42:20.060Z,10.89
2022-12-24T15:45:00.658Z,10.84
2022-12-24T15:47:37.801Z,10.83
2022-12-24T15:50:16.238Z,10.79
2022-12-24T15:52:47.352Z,10.85
2022-12-24T15:55:32.359Z,10.84
2022-12-24T15:58:02.360Z,10.85
2022-12-24T16:00:32.484Z,10.86
2022-12-24T16:03:13.524Z,10.81
2022-12-24T16:05:42.089Z,10.83
2022-12-24T16:08:31.584Z,10.72
2022-12-24T16:11:19.300Z,10.68
2022-12-24T16:14:04.316Z,10.68
2022-12-24T16:16:39.271Z,10.67
2022-12-24T16:19:09.289Z,10.62
2022-12-24T16:21:41.388Z,10.63
2022-12-24T16:24:19.186Z,10.55
2022-12-24T16:26:48.440Z,10.55
2022-12-24T16:29:19.369Z,10.50
2022-12-24T16:31:52.090Z,10.48
2022-12-24T16:34:24.618Z,10.46
2022-12-24T16:36:53.145Z,10.50
2022-12-24T16:39:25.837Z,10.45
2022-12-24T16:42:13.336Z,10.44
2022-12-24T16:44:42.353Z,10.46
2022-12-24T16:47:22.084Z,10.41
2022-12-24T16:49:51.644Z,10.34
2022-12-24T16:52:22.593Z,10.36
2022-12-24T16:54:52.409Z,10.27
2022-12-24T16:57:21.172Z,10.24
2022-12-24T16:59:49.721Z,10.28
2022-12-24T17:02:20.264Z,10.31
2022-12-24T17:04:49.365Z,10.31
2022-12-24T17:07:19.837Z,10.29
2022-12-24T17:09:48.222Z,10.29
2022-12-24T17:12:18.027Z,10.28
2022-12-24T17:14:46.431Z,10.24
2022-12-24T17:17:24.598Z,10.29
2022-12-24T17:19:53.186Z,10.27
2022-12-24T17:22:21.603Z,10.31
2022-12-24T17:24:50.036Z,10.33
2022-12-24T17:27:19.707Z,10.30
2022-12-24T17:29:48.120Z,10.22
2022-12-24T17:32:16.614Z,10.26
2022-12-24T17:34:45.093Z,10.23
2022-12-24T17:37:13.481Z,10.18
2022-12-24T17:39:41.873Z,10.17
2022-12-24T17:42:10.250Z,10.25
2022-12-24T17:44:40.141Z,10.26
2022-12-24T17:47:08.691Z,10.17
2022-12-24T17:49:37.275Z,10.23
2022-12-24T17:52:06.093Z,10.24
2022-12-24T17:54:34.497Z,10.09
2022-12-24T17:57:02.934Z,10.17
2022-12-24T17:59:31.327Z,10.16
2022-12-24T18:02:01.179Z,10.15
2022-12-24T18:04:29.705Z,10.17
2022-12-24T18:07:02.537Z,10.15
2022-12-24T18:09:31.940Z,10.12
2022-12-24T18:12:00.997Z,10.06
2022-12-24T18:14:29.705Z,10.04
2022-12-24T18:16:58.085Z,10.06
2022-12-24T18:19:28.038Z,10.02
2022-12-24T18:21:56.605Z,9.97
2022-12-24T18:24:25.750Z,10.05
2022-12-24T18:26:55.221Z,10.05
2022-12-24T18:29:23.681Z,10.02
2022-12-24T18:31:52.640Z,9.98
2022-12-24T18:34:21.209Z,10.00
2022-12-24T18:36:55.045Z,9.95
2022-12-24T18:39:24.130Z,9.90
2022-12-24T18:41:52.615Z,9.87
2022-12-24T18:44:25.305Z,9.86
2022-12-24T18:46:54.308Z,9.84
2022-12-24T18:49:22.852Z,9.82
2022-12-24T18:51:52.608Z,9.82
2022-12-24T18:54:21.029Z,9.92
2022-12-24T18:56:52.263Z,9.93
2022-12-24T18:59:20.688Z,9.93
2022-12-24T19:01:49.263Z,9.96
2022-12-24T19:04:17.912Z,9.87
2022-12-24T19:06:52.774Z,9.87
2022-12-24T19:09:23.974Z,9.94
2022-12-24T19:11:52.320Z,9.98
2022-12-24T19:14:21.115Z,10.13
2022-12-24T19:16:49.556Z,10.14
2022-12-24T19:19:18.846Z,10.10
2022-12-24T19:21:47.219Z,10.14
2022-12-24T19:24:15.638Z,10.12
2022-12-24T19:26:45.333Z,10.11
2022-12-24T19:29:13.787Z,10.11
2022-12-24T19:31:44.356Z,10.12
2022-12-24T19:34:12.779Z,10.09
2022-12-24T19:36:41.249Z,10.14
2022-12-24T19:39:09.647Z,10.14
2022-12-24T19:41:38.134Z,10.06
2022-12-24T19:44:07.944Z,10.05
2022-12-24T19:46:38.103Z,10.08
2022-12-24T19:49:09.226Z,10.11
2022-12-24T19:51:37.806Z,10.07
2022-12-24T19:54:13.423Z,10.09
2022-12-24T19:56:48.409Z,10.06
2022-12-24T19:59:18.080Z,10.06
2022-12-24T20:01:47.216Z,10.02
2022-12-24T20:04:18.332Z,10.02
2022-12-24T20:06:47.877Z,9.94
2022-12-24T20:09:16.206Z,9.90
2022-12-24T20:11:44.635Z,9.83
2022-12-24T20:14:13.620Z,9.80
2022-12-24T20:16:43.510Z,9.73
2022-12-24T20:19:15.443Z,9.66
2022-12-24T20:21:43.853Z,9.63
2022-12-24T20:24:12.294Z,9.57
2022-12-24T20:26:41.065Z,9.55
2022-12-24T20:29:12.713Z,9.54
2022-12-24T20:31:42.706Z,9.60
2022-12-24T20:34:12.370Z,9.57
2022-12-24T20:36:40.833Z,9.50
2022-12-24T20:39:09.251Z,9.46
2022-12-24T20:41:38.073Z,9.48
2022-12-24T20:44:06.806Z,9.52
2022-12-24T20:46:35.655Z,9.49
2022-12-24T20:49:05.646Z,9.46
2022-12-24T20:51:34.116Z,9.45
2022-12-24T20:54:02.850Z,9.47
2022-12-24T20:56:31.956Z,9.56
2022-12-24T20:59:01.799Z,9.57
2022-12-24T21:01:31.250Z,9.55
2022-12-24T21:04:04.582Z,9.64
2022-12-24T21:06:35.738Z,9.64
2022-12-24T21:09:05.823Z,9.70
2022-12-24T21:11:52.115Z,9.70
2022-12-24T21:14:24.828Z,9.68
2022-12-24T21:16:55.509Z,9.64
2022-12-24T21:19:26.189Z,9.68
2022-12-24T21:21:56.153Z,9.68
2022-12-24T21:24:24.525Z,9.73
2022-12-24T21:26:52.893Z,9.74
2022-12-24T21:29:21.382Z,9.71
2022-12-24T21:31:49.820Z,9.69
2022-12-24T21:34:18.221Z,9.64
2022-12-24T21:36:46.663Z,9.65
2022-12-24T21:39:16.490Z,9.68
2022-12-24T21:41:44.959Z,9.69
2022-12-24T21:44:13.372Z,9.73
2022-12-24T21:46:41.798Z,9.76
2022-12-24T21:49:29.971Z,9.73
2022-12-24T21:51:59.789Z,9.79
2022-12-24T21:54:30.743Z,9.79
2022-12-24T21:57:15.610Z,9.74
2022-12-24T21:59:45.010Z,9.66
2022-12-24T22:02:15.452Z,9.65
2022-12-24T22:04:44.754Z,9.59
2022-12-24T22:07:40.045Z,9.55
2022-12-24T22:10:29.323Z,9.54
2022-12-24T22:13:00.464Z,9.54
2022-12-24T22:15:28.885Z,9.53
2022-12-24T22:17:57.299Z,9.48
2022-12-24T22:20:25.972Z,9.50
2022-12-24T22:22:54.596Z,9.48
2022-12-24T22:25:24.405Z,9.48
2022-12-24T22:27:52.834Z,9.44
2022-12-24T22:30:21.440Z,9.45
2022-12-24T22:32:49.879Z,9.44
2022-12-24T22:35:18.481Z,9.42
2022-12-24T22:37:47.221Z,9.41
2022-12-24T22:40:16.162Z,9.44
2022-12-24T22:42:45.890Z,9.44
2022-12-24T22:45:20.044Z,9.48
2022-12-24T22:47:50.575Z,9.44
2022-12-24T22:50:19.376Z,9.48
2022-12-24T22:52:47.718Z,9.48
2022-12-24T22:55:16.269Z,9.47
2022-12-24T22:57:45.969Z,9.49
2022-12-24T23:00:37.225Z,9.54
2022-12-24T23:03:06.625Z,9.56
2022-12-24T23:05:35.271Z,9.57
2022-12-24T23:08:03.841Z,9.59
2022-12-24T23:10:32.508Z,9.58
2022-12-24T23:13:19.768Z,9.62
2022-12-24T23:15:48.272Z,9.61
2022-12-24T23:18:16.646Z,9.60
2022-12-24T23:20:46.596Z,9.60
2022-12-24T23:23:16.161Z,9.62
2022-12-24T23:25:44.567Z,9.69
2022-12-24T23:28:14.298Z,9.73
2022-12-24T23:30:42.780Z,9.72
2022-12-24T23:33:11.191Z,9.74
2022-12-24T23:35:39.571Z,9.74
2022-12-24T23:38:08.141Z,9.72
2022-12-24T23:40:36.496Z,9.77
2022-12-24T23:43:04.854Z,9.78
2022-12-24T23:45:34.697Z,9.80
2022-12-24T23:48:03.057Z,9.82
2022-12-24T23:50:31.603Z,9.78
2022-12-24T23:52:59.964Z,9.77
2022-12-24T23:55:28.690Z,9.73
2022-12-24T23:57:57.108Z,9.75
